createdAt,value
2019-01-23T00:01:02.650Z,23.40
2019-01-23T00:03:52.986Z,20.57
2019-01-23T00:06:43.777Z,22.70
2019-01-23T00:09:33.808Z,21.77
2019-01-23T00:12:24.023Z,23.40
2019-01-23T00:15:17.416Z,22.50
2019-01-23T00:18:07.026Z,18.62
2019-01-23T00:20:57.107Z,23.05
2019-01-23T00:23:48.052Z,24.35
2019-01-23T00:26:38.193Z,25.12
2019-01-23T00:29:28.635Z,24.85
2019-01-23T00:32:19.667Z,22.25
2019-01-23T00:35:10.498Z,24.82
2019-01-23T00:38:02.357Z,23.65
2019-01-23T00:40:52.097Z,20.20
2019-01-23T00:43:41.864Z,22.27
2019-01-23T00:46:32.067Z,25.77
2019-01-23T00:49:21.965Z,26.95
2019-01-23T00:52:12.133Z,22.82
2019-01-23T00:55:02.066Z,24.00
2019-01-23T00:57:52.138Z,23.27
2019-01-23T01:00:42.190Z,26.10
2019-01-23T01:03:32.264Z,23.70
2019-01-23T01:06:22.307Z,23.73
2019-01-23T01:09:12.534Z,24.85
2019-01-23T01:12:02.475Z,23.52
2019-01-23T01:14:52.331Z,23.80
2019-01-23T01:17:42.726Z,26.27
2019-01-23T01:20:32.697Z,23.40
2019-01-23T01:23:22.688Z,23.55
2019-01-23T01:26:12.754Z,24.77
2019-01-23T01:29:02.796Z,25.85
2019-01-23T01:31:52.443Z,23.20
2019-01-23T01:34:42.284Z,26.40
2019-01-23T01:37:31.986Z,21.90
2019-01-23T01:40:21.954Z,24.87
2019-01-23T01:43:12.066Z,24.80
2019-01-23T01:46:01.831Z,23.87
2019-01-23T01:48:51.716Z,22.20
2019-01-23T01:51:41.740Z,26.48
2019-01-23T01:54:31.726Z,25.95
2019-01-23T01:57:22.184Z,27.70
2019-01-23T02:00:14.894Z,25.15
2019-01-23T02:03:05.046Z,30.43
2019-01-23T02:05:55.262Z,28.25
2019-01-23T02:08:45.515Z,26.70
2019-01-23T02:11:35.864Z,22.13
2019-01-23T02:14:25.565Z,25.80
2019-01-23T02:17:15.746Z,25.60
2019-01-23T02:20:07.930Z,28.20
2019-01-23T02:22:58.159Z,25.37
2019-01-23T02:25:48.008Z,28.10
2019-01-23T02:28:38.128Z,27.95
2019-01-23T02:31:29.064Z,23.95
2019-01-23T02:34:19.045Z,30.12
2019-01-23T02:37:09.028Z,26.68
2019-01-23T02:39:59.317Z,26.30
2019-01-23T02:42:49.027Z,28.95
2019-01-23T02:45:38.587Z,28.30
2019-01-23T02:48:28.564Z,26.73
2019-01-23T02:51:18.794Z,25.95
2019-01-23T02:54:09.027Z,28.30
2019-01-23T02:56:59.072Z,24.80
2019-01-23T02:59:48.764Z,31.85
2019-01-23T03:02:38.718Z,28.70
2019-01-23T03:05:28.586Z,30.72
2019-01-23T03:08:18.486Z,30.65
2019-01-23T03:11:08.627Z,30.23
2019-01-23T03:13:58.623Z,28.07
2019-01-23T03:16:48.513Z,26.37
2019-01-23T03:19:38.793Z,28.38
2019-01-23T03:22:29.028Z,27.82
2019-01-23T03:25:19.493Z,31.07
2019-01-23T03:28:09.261Z,25.62
2019-01-23T03:30:59.591Z,28.40
2019-01-23T03:33:49.682Z,28.57
2019-01-23T03:36:39.934Z,21.35
2019-01-23T03:39:30.203Z,28.32
2019-01-23T03:42:20.301Z,30.27
2019-01-23T03:45:11.676Z,29.67
2019-01-23T03:48:01.494Z,29.45
2019-01-23T03:50:51.500Z,29.67
2019-01-23T03:53:41.379Z,27.02
2019-01-23T03:56:31.662Z,29.25
2019-01-23T03:59:21.404Z,32.90
2019-01-23T04:02:11.564Z,26.68
2019-01-23T04:05:01.452Z,30.82
2019-01-23T04:07:52.652Z,29.95
2019-01-23T04:10:42.487Z,25.85
2019-01-23T04:13:32.219Z,31.62
2019-01-23T04:16:22.024Z,29.00
2019-01-23T04:19:11.819Z,31.12
2019-01-23T04:22:01.860Z,29.27
2019-01-23T04:24:52.069Z,32.20
2019-01-23T04:27:41.945Z,30.97
2019-01-23T04:30:32.230Z,29.30
2019-01-23T04:33:22.023Z,28.67
2019-01-23T04:36:11.918Z,29.48
2019-01-23T04:39:01.781Z,29.55
2019-01-23T04:41:52.801Z,29.72
2019-01-23T04:44:42.898Z,32.03
2019-01-23T04:47:32.872Z,29.23
2019-01-23T04:50:22.649Z,32.05
2019-01-23T04:53:16.572Z,32.58
2019-01-23T04:56:07.305Z,31.90
2019-01-23T04:58:57.330Z,28.23
2019-01-23T05:01:47.198Z,28.98
2019-01-23T05:04:37.281Z,20.82
2019-01-23T05:07:27.303Z,33.75
2019-01-23T05:10:17.163Z,30.37
2019-01-23T05:13:07.110Z,29.52
2019-01-23T05:15:57.519Z,31.50
2019-01-23T05:18:47.523Z,29.48
2019-01-23T05:21:37.808Z,28.55
2019-01-23T05:24:27.991Z,29.80
2019-01-23T05:27:17.994Z,27.25
2019-01-23T05:30:10.808Z,32.80
2019-01-23T05:33:00.733Z,28.25
2019-01-23T05:35:50.542Z,31.35
2019-01-23T05:38:40.469Z,29.90
2019-01-23T05:41:30.282Z,29.27
2019-01-23T05:44:20.115Z,27.13
2019-01-23T05:47:10.153Z,29.72
2019-01-23T05:49:59.994Z,26.85
2019-01-23T05:52:50.021Z,29.63
2019-01-23T05:55:39.851Z,27.20
2019-01-23T05:58:29.941Z,29.40
2019-01-23T06:01:19.754Z,32.13
2019-01-23T06:04:09.639Z,25.30
2019-01-23T06:06:59.498Z,33.75
2019-01-23T06:09:49.602Z,29.50
2019-01-23T06:12:40.602Z,25.90
2019-01-23T06:15:30.343Z,30.97
2019-01-23T06:18:20.169Z,31.57
2019-01-23T06:21:09.820Z,31.20
2019-01-23T06:23:59.600Z,29.10
2019-01-23T06:26:49.343Z,30.65
2019-01-23T06:29:39.531Z,30.62
2019-01-23T06:32:29.553Z,25.10
2019-01-23T06:35:19.844Z,29.05
2019-01-23T06:38:09.712Z,30.62
2019-01-23T06:40:59.900Z,24.80
2019-01-23T06:43:49.829Z,33.28
2019-01-23T06:46:39.882Z,31.87
2019-01-23T06:49:29.851Z,34.83
2019-01-23T06:52:19.739Z,33.05
2019-01-23T06:55:09.652Z,29.72
2019-01-23T06:57:59.597Z,31.30
2019-01-23T07:00:49.904Z,28.57
2019-01-23T07:03:39.372Z,31.57
2019-01-23T07:06:29.068Z,27.98
2019-01-23T07:09:18.711Z,29.05
2019-01-23T07:12:08.722Z,33.30
2019-01-23T07:14:58.724Z,25.45
2019-01-23T07:17:48.823Z,25.50
2019-01-23T07:20:38.349Z,29.85
2019-01-23T07:23:28.249Z,26.62
2019-01-23T07:26:18.012Z,31.40
2019-01-23T07:29:07.832Z,29.23
2019-01-23T07:31:57.682Z,32.73
2019-01-23T07:34:47.449Z,26.05
2019-01-23T07:37:37.465Z,26.80
2019-01-23T07:40:27.655Z,27.48
2019-01-23T07:43:17.432Z,29.25
2019-01-23T07:46:07.629Z,28.15
2019-01-23T07:48:57.871Z,29.95
2019-01-23T07:51:47.689Z,30.65
2019-01-23T07:54:37.754Z,27.60
2019-01-23T07:57:27.584Z,27.75
2019-01-23T08:00:19.040Z,27.20
2019-01-23T08:03:09.348Z,33.67
2019-01-23T08:05:59.634Z,23.62
2019-01-23T08:08:49.397Z,27.07
2019-01-23T08:11:39.511Z,28.38
2019-01-23T08:14:29.505Z,31.55
2019-01-23T08:17:19.622Z,20.32
2019-01-23T08:20:12.050Z,27.85
2019-01-23T08:23:01.660Z,30.27
2019-01-23T08:25:52.341Z,29.30
2019-01-23T08:28:42.171Z,26.73
2019-01-23T08:31:32.158Z,29.05
2019-01-23T08:34:21.995Z,27.55
2019-01-23T08:37:12.172Z,29.00
2019-01-23T08:40:01.892Z,28.12
2019-01-23T08:42:51.569Z,28.20
2019-01-23T08:45:41.789Z,28.80
2019-01-23T08:48:31.718Z,28.25
2019-01-23T08:51:21.651Z,30.37
2019-01-23T08:54:11.932Z,27.93
2019-01-23T08:57:01.721Z,29.00
2019-01-23T08:59:51.502Z,27.82
2019-01-23T09:02:41.559Z,30.68
2019-01-23T09:05:31.703Z,28.45
2019-01-23T09:08:22.655Z,27.70
2019-01-23T09:11:14.068Z,30.80
2019-01-23T09:14:04.471Z,24.92
2019-01-23T09:16:54.059Z,31.55
2019-01-23T09:19:44.151Z,31.35
2019-01-23T09:22:34.218Z,25.17
2019-01-23T09:25:24.952Z,27.73
2019-01-23T09:28:15.029Z,30.45
2019-01-23T09:31:32.012Z,29.92
2019-01-23T09:34:53.101Z,30.85
2019-01-23T09:38:19.770Z,27.55
2019-01-23T09:41:26.109Z,31.60
2019-01-23T09:45:05.681Z,27.42
2019-01-23T09:48:07.517Z,24.87
2019-01-23T09:51:34.086Z,30.65
2019-01-23T09:54:23.898Z,23.65
2019-01-23T09:57:13.658Z,33.80
2019-01-23T10:00:09.268Z,30.77
2019-01-23T10:02:59.291Z,30.25
2019-01-23T10:05:49.380Z,31.90
2019-01-23T10:08:39.560Z,30.10
2019-01-23T10:11:29.330Z,31.57
2019-01-23T10:14:18.977Z,30.60
2019-01-23T10:17:08.866Z,35.92
2019-01-23T10:19:58.441Z,32.63
2019-01-23T10:22:48.249Z,31.70
2019-01-23T10:25:38.208Z,27.00
2019-01-23T10:28:27.999Z,30.82
2019-01-23T10:31:18.291Z,29.23
2019-01-23T10:34:08.357Z,30.65
2019-01-23T10:36:58.177Z,29.98
2019-01-23T10:39:48.419Z,28.83
2019-01-23T10:42:38.533Z,28.83
2019-01-23T10:45:28.490Z,34.75
2019-01-23T10:48:18.400Z,30.82
2019-01-23T10:51:08.281Z,31.55
2019-01-23T10:53:58.362Z,31.48
2019-01-23T10:56:48.307Z,32.78
2019-01-23T10:59:38.171Z,28.52
2019-01-23T11:02:27.841Z,29.75
2019-01-23T11:05:20.302Z,29.52
2019-01-23T11:08:10.510Z,28.17
2019-01-23T11:11:00.554Z,29.35
2019-01-23T11:13:50.586Z,30.70
2019-01-23T11:16:40.771Z,28.42
2019-01-23T11:19:30.465Z,28.17
2019-01-23T11:22:20.351Z,31.30
2019-01-23T11:25:10.858Z,28.80
2019-01-23T11:28:00.836Z,31.05
2019-01-23T11:30:50.570Z,33.10
2019-01-23T11:33:40.380Z,31.20
2019-01-23T11:36:30.260Z,30.88
2019-01-23T11:39:23.213Z,28.42
2019-01-23T11:42:13.420Z,29.07
2019-01-23T11:45:03.501Z,32.83
2019-01-23T11:47:53.491Z,29.77
2019-01-23T11:50:43.398Z,28.07
2019-01-23T11:53:33.245Z,30.65
2019-01-23T11:56:23.199Z,29.57
2019-01-23T11:59:13.017Z,29.85
2019-01-23T12:02:03.193Z,30.25
2019-01-23T12:04:53.277Z,28.50
2019-01-23T12:07:43.059Z,30.48
2019-01-23T12:10:32.950Z,29.05
2019-01-23T12:13:22.915Z,27.80
2019-01-23T12:16:13.881Z,28.38
2019-01-23T12:19:03.500Z,27.98
2019-01-23T12:21:53.507Z,31.68
2019-01-23T12:24:46.330Z,31.37
2019-01-23T12:27:36.800Z,32.67
2019-01-23T12:30:32.759Z,29.57
2019-01-23T12:33:50.198Z,31.55
2019-01-23T12:36:42.462Z,32.65
2019-01-23T12:39:33.181Z,29.55
2019-01-23T12:42:27.100Z,30.25
2019-01-23T12:45:26.059Z,32.00
2019-01-23T12:48:16.937Z,28.60
2019-01-23T12:51:09.536Z,30.00
2019-01-23T12:54:01.483Z,28.77
2019-01-23T13:00:47.880Z,31.05
2019-01-23T13:03:39.342Z,30.55
2019-01-23T13:06:31.403Z,30.65
2019-01-23T13:09:23.240Z,32.75
2019-01-23T13:12:14.430Z,30.45
2019-01-23T13:15:05.359Z,36.88
2019-01-23T13:17:57.462Z,33.08
2019-01-23T13:20:47.420Z,31.73
2019-01-23T13:23:38.230Z,30.20
2019-01-23T13:26:28.897Z,30.43
2019-01-23T13:29:19.660Z,30.08
2019-01-23T13:32:10.217Z,32.33
2019-01-23T13:35:00.518Z,30.80
2019-01-23T13:37:50.850Z,27.77
2019-01-23T13:40:41.714Z,29.80
2019-01-23T13:43:32.072Z,28.90
2019-01-23T13:46:22.772Z,29.37
2019-01-23T13:49:13.360Z,29.50
2019-01-23T13:52:03.445Z,36.35
2019-01-23T13:54:54.339Z,35.73
2019-01-23T13:57:45.859Z,35.70
2019-01-23T14:00:40.117Z,32.50
2019-01-23T14:03:31.632Z,31.95
2019-01-23T14:06:21.409Z,32.03
2019-01-23T14:09:11.169Z,29.37
2019-01-23T14:12:05.819Z,27.05
2019-01-23T14:14:55.677Z,29.27
2019-01-23T14:17:47.361Z,29.45
2019-01-23T14:20:39.251Z,30.62
2019-01-23T14:23:31.696Z,29.95
2019-01-23T14:26:24.308Z,28.52
2019-01-23T14:29:17.881Z,31.33
2019-01-23T14:32:11.379Z,27.77
2019-01-23T14:35:05.075Z,29.42
2019-01-23T14:38:00.850Z,28.30
2019-01-23T14:40:53.255Z,28.17
2019-01-23T14:43:45.802Z,29.07
2019-01-23T14:46:38.108Z,27.85
2019-01-23T14:49:31.045Z,25.68
2019-01-23T14:52:26.548Z,27.30
2019-01-23T14:55:19.575Z,29.55
2019-01-23T14:58:12.674Z,28.83
2019-01-23T15:01:05.688Z,30.10
2019-01-23T15:03:58.828Z,27.50
2019-01-23T15:06:52.393Z,27.10
2019-01-23T15:09:48.163Z,28.50
2019-01-23T15:12:41.776Z,28.47
2019-01-23T15:15:35.233Z,28.32
2019-01-23T15:18:28.661Z,30.82
2019-01-23T15:21:22.031Z,29.72
2019-01-23T15:24:16.137Z,29.70
2019-01-23T15:27:10.018Z,27.22
2019-01-23T15:30:03.923Z,25.77
2019-01-23T15:32:58.272Z,25.95
2019-01-23T15:35:56.063Z,27.30
2019-01-23T15:38:49.362Z,29.25
2019-01-23T15:41:41.521Z,27.45
2019-01-23T15:44:34.602Z,29.77
2019-01-23T15:47:28.462Z,30.35
2019-01-23T15:50:24.048Z,25.25
2019-01-23T15:53:18.800Z,27.17
2019-01-23T15:56:12.378Z,26.65
2019-01-23T15:59:06.622Z,29.65
2019-01-23T16:02:00.482Z,26.73
2019-01-23T16:04:54.288Z,28.15
2019-01-23T16:07:48.844Z,30.82
2019-01-23T16:10:42.302Z,32.35
2019-01-23T16:13:42.223Z,30.52
2019-01-23T16:16:30.890Z,28.32
2019-01-23T16:19:25.419Z,29.20
2019-01-23T16:22:18.338Z,29.15
2019-01-23T16:25:12.382Z,27.25
2019-01-23T16:28:05.705Z,26.68
2019-01-23T16:30:59.499Z,33.92
2019-01-23T16:33:53.039Z,29.87
2019-01-23T16:36:47.483Z,30.20
2019-01-23T16:39:41.855Z,28.30
2019-01-23T16:42:34.773Z,29.85
2019-01-23T16:45:25.930Z,28.52
2019-01-23T16:48:16.260Z,29.90
2019-01-23T16:51:06.881Z,29.35
2019-01-23T16:53:58.491Z,32.00
2019-01-23T16:56:48.410Z,29.65
2019-01-23T16:59:39.229Z,30.30
2019-01-23T17:02:29.728Z,28.85
2019-01-23T17:05:22.559Z,28.25
2019-01-23T17:08:13.350Z,28.10
2019-01-23T17:11:03.407Z,30.88
2019-01-23T17:13:54.127Z,28.15
2019-01-23T17:16:45.626Z,32.23
2019-01-23T17:19:36.276Z,29.27
2019-01-23T17:22:27.126Z,28.52
2019-01-23T17:25:17.259Z,32.23
2019-01-23T17:28:08.852Z,31.25
2019-01-23T17:30:59.561Z,30.72
2019-01-23T17:33:50.309Z,28.87
2019-01-23T17:36:41.235Z,27.98
2019-01-23T17:39:31.341Z,28.12
2019-01-23T17:42:21.898Z,30.75
2019-01-23T17:45:16.101Z,30.23
2019-01-23T17:48:08.552Z,28.67
2019-01-23T17:50:59.546Z,27.95
2019-01-23T17:53:50.502Z,27.98
2019-01-23T17:56:49.130Z,28.20
2019-01-23T17:59:39.744Z,32.28
2019-01-23T18:02:30.494Z,29.65
2019-01-23T18:05:26.757Z,27.15
2019-01-23T18:08:18.426Z,27.62
2019-01-23T18:11:08.997Z,27.15
2019-01-23T18:14:00.121Z,28.60
2019-01-23T18:16:50.771Z,31.42
2019-01-23T18:19:41.858Z,28.95
2019-01-23T18:22:32.694Z,29.02
2019-01-23T18:25:23.804Z,27.45
2019-01-23T18:28:15.492Z,31.12
2019-01-23T18:31:46.522Z,29.48
2019-01-23T18:35:14.418Z,26.55
2019-01-23T18:38:38.907Z,27.35
2019-01-23T18:42:16.404Z,31.12
2019-01-23T18:45:25.173Z,29.23
2019-01-23T18:49:02.318Z,29.02
2019-01-23T18:52:11.336Z,28.30
2019-01-23T18:55:02.520Z,30.02
2019-01-23T18:57:53.473Z,33.75
2019-01-23T19:00:43.919Z,26.65
2019-01-23T19:03:35.179Z,32.67
2019-01-23T19:06:25.916Z,31.97
2019-01-23T19:09:16.983Z,32.35
2019-01-23T19:12:09.007Z,31.45
2019-01-23T19:15:00.837Z,29.70
2019-01-23T19:17:58.134Z,30.08
2019-01-23T19:20:50.807Z,34.45
2019-01-23T19:23:41.991Z,31.05
2019-01-23T19:26:34.974Z,32.58
2019-01-23T19:29:25.310Z,34.03
2019-01-23T19:32:16.300Z,34.15
2019-01-23T19:35:06.606Z,33.20
2019-01-23T19:37:56.465Z,30.30
2019-01-23T19:40:47.791Z,32.78
2019-01-23T19:43:37.940Z,33.20
2019-01-23T19:46:27.921Z,32.60
2019-01-23T19:49:18.129Z,32.70
2019-01-23T19:52:08.572Z,30.70
2019-01-23T19:55:01.359Z,32.67
2019-01-23T19:57:51.520Z,31.12
2019-01-23T20:00:41.932Z,31.57
2019-01-23T20:03:31.800Z,32.08
2019-01-23T20:06:21.604Z,31.62
2019-01-23T20:09:12.479Z,30.57
2019-01-23T20:12:02.442Z,33.13
2019-01-23T20:14:52.678Z,31.65
2019-01-23T20:17:42.354Z,33.65
2019-01-23T20:20:32.169Z,32.42
2019-01-23T20:23:22.310Z,30.15
2019-01-23T20:26:11.968Z,30.45
2019-01-23T20:29:01.844Z,33.40
2019-01-23T20:31:51.817Z,31.85
2019-01-23T20:34:41.602Z,33.45
2019-01-23T20:37:31.729Z,34.50
2019-01-23T20:40:21.878Z,33.83
2019-01-23T20:43:11.978Z,30.15
2019-01-23T20:46:01.853Z,35.68
2019-01-23T20:48:51.987Z,36.77
2019-01-23T20:51:42.437Z,30.60
2019-01-23T20:54:33.074Z,33.50
2019-01-23T20:57:23.098Z,33.98
2019-01-23T21:00:18.638Z,35.25
2019-01-23T21:03:08.552Z,34.80
2019-01-23T21:05:58.814Z,32.45
2019-01-23T21:08:48.732Z,34.63
2019-01-23T21:11:38.781Z,33.15
2019-01-23T21:14:28.914Z,32.93
2019-01-23T21:17:22.580Z,31.37
2019-01-23T21:20:15.127Z,29.60
2019-01-23T21:23:06.383Z,32.35
2019-01-23T21:25:56.177Z,34.40
2019-01-23T21:28:46.058Z,30.90
2019-01-23T21:31:35.932Z,33.23
2019-01-23T21:34:25.938Z,32.42
2019-01-23T21:37:15.863Z,29.20
2019-01-23T21:40:08.932Z,31.37
2019-01-23T21:42:58.718Z,32.48
2019-01-23T21:45:48.545Z,35.15
2019-01-23T21:48:38.078Z,34.15
2019-01-23T21:51:29.145Z,33.95
2019-01-23T21:54:19.312Z,33.90
2019-01-23T21:57:08.853Z,33.10
2019-01-23T21:59:58.938Z,36.33
2019-01-23T22:02:49.052Z,38.60
2019-01-23T22:05:39.649Z,33.75
2019-01-23T22:08:29.739Z,32.23
2019-01-23T22:11:22.624Z,35.48
2019-01-23T22:14:13.671Z,29.27
2019-01-23T22:17:04.313Z,34.38
2019-01-23T22:19:53.938Z,34.27
2019-01-23T22:22:43.884Z,35.70
2019-01-23T22:25:33.798Z,30.82
2019-01-23T22:28:23.919Z,36.20
2019-01-23T22:31:13.689Z,31.65
2019-01-23T22:34:03.678Z,34.73
2019-01-23T22:36:53.658Z,33.55
2019-01-23T22:39:54.333Z,34.33
2019-01-23T22:42:44.470Z,32.42
2019-01-23T22:45:34.498Z,33.80
2019-01-23T22:48:24.554Z,34.38
2019-01-23T22:51:14.993Z,33.60
2019-01-23T22:54:08.364Z,34.60
2019-01-23T22:56:58.655Z,30.30
2019-01-23T22:59:48.711Z,40.98
2019-01-23T23:02:38.501Z,35.10
2019-01-23T23:05:28.471Z,33.28
2019-01-23T23:08:18.341Z,36.50
2019-01-23T23:11:07.995Z,32.38
2019-01-23T23:13:59.108Z,37.90
2019-01-23T23:16:51.814Z,35.85
2019-01-23T23:19:44.603Z,38.60
2019-01-23T23:22:37.187Z,37.67
2019-01-23T23:25:31.372Z,37.83
2019-01-23T23:28:26.024Z,36.48
2019-01-23T23:31:18.751Z,40.08
2019-01-23T23:34:11.745Z,36.23
2019-01-23T23:37:04.439Z,37.33
2019-01-23T23:39:57.340Z,41.85
2019-01-23T23:42:50.820Z,38.42
2019-01-23T23:45:44.243Z,34.00
2019-01-23T23:48:37.702Z,36.93
2019-01-23T23:51:31.753Z,36.20
2019-01-23T23:54:24.628Z,35.55
2019-01-23T23:57:17.672Z,37.40
